Time;durP1;ratioP1;P1;durP2;ratioP2;P2;SDS_P1;SDS_P2;PMS_P1;PMS_P2;Temp;Humidity;BMP_temperature;BMP_pressure;BME280_temperature;BME280_humidity;BME280_pressure;Samples;Min_cycle;Max_cycle;Signal;HPM_P1;HPM_P2
2021/01/09 00:01:20;;;;;;;113.18;58.55;;;;;;;-0.01;83.26;100523.31;5116140;28;20287;-64
2021/01/09 00:03:46;;;;;;;142.65;70.32;;;;;;;0.01;83.15;100531.31;5115934;28;20034;-63
2021/01/09 00:06:11;;;;;;;170.35;80.47;;;;;;;0.03;83.10;100531.78;5115993;28;20015;-64
2021/01/09 00:08:37;;;;;;;154.23;66.43;;;;;;;0.05;82.83;100523.97;5115786;28;20027;-64
2021/01/09 00:11:03;;;;;;;108.85;53.83;;;;;;;0.08;82.97;100537.94;5116067;28;20023;-63
2021/01/09 00:13:28;;;;;;;88.40;47.95;;;;;;;0.08;82.73;100529.66;5114875;28;20027;-64
2021/01/09 00:15:54;;;;;;;87.30;49.17;;;;;;;0.09;82.84;100523.00;5115892;28;20410;-63
2021/01/09 00:18:19;;;;;;;73.40;44.63;;;;;;;0.11;82.68;100531.75;5115873;28;20027;-64
2021/01/09 00:20:44;;;;;;;82.10;42.50;;;;;;;0.12;82.47;100522.31;5115761;28;20310;-64
2021/01/09 00:23:10;;;;;;;76.75;42.15;;;;;;;0.13;82.39;100526.72;5115782;28;20023;-64
2021/01/09 00:25:35;;;;;;;80.03;41.80;;;;;;;0.13;82.40;100532.25;5116097;28;20048;-64
2021/01/09 00:28:01;;;;;;;72.38;38.95;;;;;;;0.13;82.32;100528.66;5115860;28;20027;-63
2021/01/09 00:30:26;;;;;;;70.18;40.45;;;;;;;0.14;82.98;100533.06;5115671;28;20027;-63
2021/01/09 00:32:52;;;;;;;75.28;40.40;;;;;;;0.14;82.95;100531.09;5115547;28;20200;-63
2021/01/09 00:35:17;;;;;;;83.75;42.17;;;;;;;0.14;83.05;100533.88;5115987;28;20084;-64
2021/01/09 00:37:43;;;;;;;75.78;41.78;;;;;;;0.16;82.70;100539.88;5115366;28;20479;-63
2021/01/09 00:40:08;;;;;;;80.13;43.45;;;;;;;0.15;82.64;100543.78;5115804;28;20019;-63
2021/01/09 00:42:41;;;;;;;73.72;40.78;;;;;;;0.15;82.48;100543.78;5115939;28;20020;-63
2021/01/09 00:45:08;;;;;;;72.82;41.17;;;;;;;0.14;82.71;100542.16;5115653;28;20024;-62
2021/01/09 00:47:33;;;;;;;109.75;50.00;;;;;;;0.14;82.94;100553.22;5115415;28;20323;-62
2021/01/09 00:49:58;;;;;;;103.40;48.15;;;;;;;0.10;82.97;100548.69;5115674;28;20023;-64
2021/01/09 00:52:24;;;;;;;97.32;45.95;;;;;;;0.07;82.75;100558.44;5115385;28;20028;-64
2021/01/09 00:54:49;;;;;;;87.82;44.22;;;;;;;0.07;82.77;100558.44;5115786;28;20154;-63
2021/01/09 00:57:14;;;;;;;87.32;44.40;;;;;;;0.07;83.02;100552.91;5115809;28;20019;-63
2021/01/09 00:59:40;;;;;;;83.35;44.30;;;;;;;0.05;82.45;100559.91;5119575;28;20024;-63
2021/01/09 01:02:05;;;;;;;78.90;41.90;;;;;;;0.01;82.70;100553.41;5119056;28;20031;-62
2021/01/09 01:04:30;;;;;;;88.65;46.97;;;;;;;-0.03;82.61;100569.81;5119485;28;20020;-62
2021/01/09 01:06:56;;;;;;;78.03;40.30;;;;;;;-0.08;82.84;100558.94;5119156;28;20038;-62
2021/01/09 01:09:21;;;;;;;68.28;37.75;;;;;;;-0.10;82.85;100561.22;5117222;28;20091;-61
2021/01/09 01:11:47;;;;;;;73.85;40.05;;;;;;;-0.13;82.83;100562.69;5112417;28;20028;-61
2021/01/09 01:14:12;;;;;;;72.85;39.05;;;;;;;-0.13;82.59;100565.44;5117479;28;20051;-62
2021/01/09 01:16:43;;;;;;;68.72;39.38;;;;;;;-0.17;82.80;100566.44;5118808;28;20015;-62
2021/01/09 01:19:09;;;;;;;52.28;28.00;;;;;;;-0.22;82.16;100566.59;5119010;28;20408;-63
2021/01/09 01:21:34;;;;;;;65.75;36.25;;;;;;;-0.20;82.90;100573.44;5119086;28;20034;-63
2021/01/09 01:24:00;;;;;;;60.28;35.47;;;;;;;-0.14;82.75;100574.06;5118825;28;20027;-62
2021/01/09 01:26:25;;;;;;;64.03;33.60;;;;;;;-0.10;82.76;100575.03;5119080;27;20310;-62
2021/01/09 01:28:50;;;;;;;53.53;32.00;;;;;;;-0.08;82.83;100578.28;5118907;28;20070;-63
2021/01/09 01:31:16;;;;;;;60.42;32.75;;;;;;;-0.07;82.52;100571.63;5119331;28;20313;-63
2021/01/09 01:33:41;;;;;;;56.38;32.45;;;;;;;-0.09;82.33;100576.66;5118665;28;20400;-63
2021/01/09 01:36:10;;;;;;;62.28;33.65;;;;;;;-0.12;82.29;100583.66;5119135;28;20039;-63
2021/01/09 01:38:36;;;;;;;69.68;37.13;;;;;;;-0.12;82.44;100577.31;5118663;28;20402;-63
2021/01/09 01:41:05;;;;;;;76.10;40.03;;;;;;;-0.14;82.17;100572.13;5118777;28;20045;-60
2021/01/09 01:43:31;;;;;;;72.00;39.67;;;;;;;-0.17;82.66;100585.78;5118384;28;20072;-61
2021/01/09 01:45:57;;;;;;;78.85;40.55;;;;;;;-0.21;82.16;100569.03;5117685;28;20020;-61
2021/01/09 01:48:23;;;;;;;77.45;39.95;;;;;;;-0.25;82.52;100570.03;5118354;28;20020;-60
2021/01/09 01:50:49;;;;;;;68.88;37.22;;;;;;;-0.28;82.56;100578.94;5111827;28;20121;-64
2021/01/09 01:53:15;;;;;;;76.82;40.00;;;;;;;-0.33;82.29;100579.91;5118532;28;20027;-61
2021/01/09 01:55:40;;;;;;;71.28;39.88;;;;;;;-0.37;83.02;100588.03;5118168;28;20069;-62
2021/01/09 01:58:06;;;;;;;78.95;42.55;;;;;;;-0.41;82.58;100581.53;5118333;28;20106;-62
2021/01/09 02:00:31;;;;;;;78.68;38.00;;;;;;;-0.42;82.72;100577.16;5117290;28;20019;-62
2021/01/09 02:03:03;;;;;;;75.60;40.95;;;;;;;-0.43;83.55;100575.53;5116948;28;20020;-62
2021/01/09 02:05:40;;;;;;;74.38;40.80;;;;;;;-0.43;83.13;100577.50;5110912;28;20106;-63
2021/01/09 02:08:10;;;;;;;73.10;38.92;;;;;;;-0.41;83.75;100589.84;5118220;28;20028;-63
2021/01/09 02:10:35;;;;;;;65.57;36.47;;;;;;;-0.36;83.38;100594.38;5118113;28;20027;-62
2021/01/09 02:13:56;;;;;;;73.82;38.78;;;;;;;-0.33;83.65;100594.53;5117915;28;20042;-62
2021/01/09 02:16:24;;;;;;;75.65;38.50;;;;;;;-0.28;83.72;100595.50;5093753;28;20032;-61
2021/01/09 02:18:50;;;;;;;73.18;40.45;;;;;;;-0.25;84.12;100586.59;5117732;28;20102;-62
2021/01/09 02:21:24;;;;;;;73.68;39.72;;;;;;;-0.21;84.21;100593.09;5117882;28;20141;-62
2021/01/09 02:23:49;;;;;;;77.38;42.92;;;;;;;-0.15;84.14;100591.78;5118180;28;20051;-63
2021/01/09 02:26:15;;;;;;;74.60;40.63;;;;;;;-0.12;84.11;100594.69;5117341;28;20048;-63
2021/01/09 02:28:40;;;;;;;75.68;41.85;;;;;;;-0.09;83.93;100590.47;5117926;28;20019;-62
2021/01/09 02:31:07;;;;;;;75.05;40.97;;;;;;;-0.07;83.89;100597.28;5117700;28;20022;-62
2021/01/09 02:33:34;;;;;;;73.35;40.05;;;;;;;-0.06;83.89;100585.09;5117680;28;20129;-62
2021/01/09 02:36:01;;;;;;;77.18;41.03;;;;;;;-0.04;84.15;100596.63;5117549;28;20015;-63
2021/01/09 02:38:26;;;;;;;75.72;38.95;;;;;;;-0.03;83.96;100591.91;5117536;28;20030;-63
2021/01/09 02:40:52;;;;;;;69.40;37.72;;;;;;;-0.02;84.05;100596.31;5117182;28;20095;-63
2021/01/09 02:43:17;;;;;;;70.43;36.03;;;;;;;-0.01;84.48;100604.28;5117538;28;20012;-63
2021/01/09 02:45:42;;;;;;;63.65;35.38;;;;;;;0.01;84.72;100598.44;5117385;28;20042;-63
2021/01/09 02:48:08;;;;;;;58.78;33.40;;;;;;;0.03;84.75;100607.22;5117389;27;20062;-63
2021/01/09 02:50:33;;;;;;;58.25;32.35;;;;;;;0.06;84.93;100609.31;5117300;28;20415;-63
2021/01/09 02:52:59;;;;;;;55.95;32.60;;;;;;;0.09;84.81;100610.63;5117014;28;20035;-64
2021/01/09 02:55:24;;;;;;;59.25;33.83;;;;;;;0.10;85.01;100613.06;5117138;28;20098;-63
2021/01/09 02:57:50;;;;;;;65.20;34.42;;;;;;;0.11;84.66;100606.38;5117285;28;20349;-63
2021/01/09 03:00:16;;;;;;;57.40;31.92;;;;;;;0.16;85.02;100617.28;5111105;28;20055;-63
2021/01/09 03:02:41;;;;;;;60.65;33.00;;;;;;;0.17;84.59;100613.38;5111277;28;20311;-63
2021/01/09 03:05:07;;;;;;;57.78;32.80;;;;;;;0.19;84.75;100602.78;5099870;28;20103;-64
2021/01/09 03:07:32;;;;;;;67.82;35.33;;;;;;;0.20;84.89;100609.94;5116865;28;20027;-63
2021/01/09 03:09:58;;;;;;;66.88;34.72;;;;;;;0.21;85.03;100614.31;5116265;28;20028;-63
2021/01/09 03:12:23;;;;;;;69.50;36.03;;;;;;;0.23;84.89;100606.53;5116862;28;20411;-63
2021/01/09 03:14:48;;;;;;;69.53;35.35;;;;;;;0.24;85.02;100602.63;5117015;28;20055;-61
2021/01/09 03:17:14;;;;;;;66.32;34.08;;;;;;;0.24;84.99;100608.13;5116641;28;20019;-63
2021/01/09 03:19:39;;;;;;;55.00;32.30;;;;;;;0.25;84.62;100598.72;5115623;28;20319;-64
2021/01/09 03:22:04;;;;;;;64.03;34.15;;;;;;;0.24;84.77;100597.09;5115701;27;20051;-63
2021/01/09 03:24:29;;;;;;;62.85;35.45;;;;;;;0.24;84.93;100599.03;5116626;28;20057;-63
2021/01/09 03:26:55;;;;;;;65.07;34.22;;;;;;;0.23;84.95;100592.69;5116860;28;20106;-63
2021/01/09 03:29:20;;;;;;;62.75;34.35;;;;;;;0.24;84.85;100604.56;5116268;28;20310;-62
2021/01/09 03:31:45;;;;;;;59.53;33.53;;;;;;;0.25;85.13;100603.41;5116465;28;20039;-63
2021/01/09 03:34:11;;;;;;;66.93;34.25;;;;;;;0.24;85.12;100608.13;5116473;28;20567;-63
2021/01/09 03:36:36;;;;;;;91.03;45.55;;;;;;;0.24;84.93;100597.09;5116188;28;20039;-63
2021/01/09 03:39:02;;;;;;;82.85;43.15;;;;;;;0.25;85.01;100608.94;5116211;28;20414;-63
2021/01/09 03:41:28;;;;;;;80.25;43.78;;;;;;;0.23;84.74;100609.28;5116496;27;20019;-64
2021/01/09 03:43:53;;;;;;;77.82;42.72;;;;;;;0.23;84.71;100609.28;5116569;28;20355;-63
2021/01/09 03:46:18;;;;;;;70.07;38.45;;;;;;;0.22;85.08;100604.91;5116137;28;20172;-63
2021/01/09 03:48:44;;;;;;;68.80;36.95;;;;;;;0.22;85.39;100604.09;5116422;28;20066;-63
2021/01/09 03:51:09;;;;;;;68.72;37.45;;;;;;;0.23;85.33;100609.28;5116050;28;20502;-62
2021/01/09 03:53:34;;;;;;;69.45;36.80;;;;;;;0.24;85.12;100608.13;5115954;28;20284;-63
2021/01/09 03:56:00;;;;;;;70.75;36.58;;;;;;;0.25;85.04;100620.81;5116240;28;20461;-62
2021/01/09 03:58:25;;;;;;;69.82;38.47;;;;;;;0.26;85.03;100619.69;5115126;28;20058;-62
2021/01/09 04:00:50;;;;;;;79.55;45.38;;;;;;;0.25;85.07;100615.28;5115206;28;20031;-63
2021/01/09 04:03:15;;;;;;;78.75;43.47;;;;;;;0.25;84.64;100620.81;5115967;28;20041;-63
2021/01/09 04:05:41;;;;;;;69.13;40.10;;;;;;;0.26;85.09;100618.88;5116255;28;20413;-62
2021/01/09 04:08:06;;;;;;;62.15;36.90;;;;;;;0.25;84.75;100623.59;5115815;28;20030;-62
2021/01/09 04:10:32;;;;;;;68.93;38.88;;;;;;;0.25;84.93;100620.00;5116301;28;20022;-59
2021/01/09 04:12:58;;;;;;;71.63;40.83;;;;;;;0.25;85.13;100631.06;5116029;28;20016;-62
2021/01/09 04:15:23;;;;;;;73.65;38.10;;;;;;;0.24;85.06;100621.16;5115972;28;20023;-63
2021/01/09 04:17:49;;;;;;;69.03;38.30;;;;;;;0.22;84.99;100624.25;5115756;28;20311;-60
2021/01/09 04:20:14;;;;;;;65.55;37.28;;;;;;;0.19;84.84;100621.34;5114924;28;20063;-59
2021/01/09 04:22:39;;;;;;;63.42;34.72;;;;;;;0.17;84.76;100621.66;5114350;28;20016;-58
2021/01/09 04:25:05;;;;;;;68.13;35.28;;;;;;;0.17;85.55;100624.41;5115820;28;20039;-60
2021/01/09 04:27:30;;;;;;;62.20;36.75;;;;;;;0.16;85.25;100628.31;5115756;28;20106;-59
2021/01/09 04:29:56;;;;;;;68.97;35.38;;;;;;;0.16;85.44;100622.00;5116028;28;20106;-61
2021/01/09 04:32:21;;;;;;;67.05;34.88;;;;;;;0.15;85.52;100634.19;5115592;28;20080;-62
2021/01/09 04:34:48;;;;;;;66.75;35.53;;;;;;;0.14;85.50;100632.56;5120099;28;20115;-63
2021/01/09 04:37:14;;;;;;;65.78;35.30;;;;;;;0.13;85.41;100639.22;5119812;28;20027;-61
2021/01/09 04:39:39;;;;;;;67.38;35.97;;;;;;;0.12;85.14;100635.66;5120046;28;20099;-63
2021/01/09 04:42:05;;;;;;;63.00;32.75;;;;;;;0.13;85.38;100636.47;5118939;28;20322;-62
2021/01/09 04:44:31;;;;;;;62.63;34.38;;;;;;;0.12;85.47;100641.19;5118671;28;20069;-63
2021/01/09 04:47:00;;;;;;;61.65;36.50;;;;;;;0.11;85.32;100647.84;5119936;27;20024;-62
2021/01/09 04:49:27;;;;;;;62.65;33.60;;;;;;;0.12;85.45;100645.91;5119612;28;20318;-63
2021/01/09 04:51:53;;;;;;;63.15;33.78;;;;;;;0.08;85.16;100648.50;5119553;28;20345;-61
2021/01/09 04:54:20;;;;;;;59.85;31.92;;;;;;;0.05;85.36;100643.63;5119700;28;20409;-63
2021/01/09 04:56:48;;;;;;;65.95;34.63;;;;;;;0.04;85.33;100636.47;5119456;28;20055;-62
2021/01/09 04:59:15;;;;;;;64.72;34.25;;;;;;;0.05;85.37;100649.16;5119690;28;20024;-63
2021/01/09 05:01:42;;;;;;;62.08;35.50;;;;;;;0.04;85.27;100644.78;5119390;28;20418;-63
2021/01/09 05:04:08;;;;;;;64.47;33.30;;;;;;;0.03;85.24;100637.63;5118433;27;20028;-60
2021/01/09 05:06:33;;;;;;;67.03;35.25;;;;;;;0.01;84.98;100642.66;5119131;28;20038;-62
2021/01/09 05:08:59;;;;;;;72.88;40.55;;;;;;;0.01;85.32;100647.38;5119874;28;20031;-62
2021/01/09 05:11:24;;;;;;;77.00;43.70;;;;;;;0.02;85.36;100655.34;5119129;28;20049;-58
2021/01/09 05:13:50;;;;;;;80.35;43.13;;;;;;;0.05;85.06;100651.13;5119214;28;20337;-58
2021/01/09 05:16:16;;;;;;;76.63;41.85;;;;;;;0.03;84.90;100661.69;5119477;28;20343;-57
2021/01/09 05:18:42;;;;;;;70.10;38.47;;;;;;;0.05;85.10;100659.41;5119024;28;20146;-56
2021/01/09 05:21:12;;;;;;;67.30;36.72;;;;;;;0.03;84.82;100659.72;5119005;28;20019;-59
2021/01/09 05:23:51;;;;;;;73.38;38.47;;;;;;;0.02;84.56;100662.81;5119160;28;20023;-54
2021/01/09 05:26:20;;;;;;;71.07;37.38;;;;;;;-0.03;84.71;100670.13;5118953;28;20023;-63
2021/01/09 05:28:48;;;;;;;77.45;39.00;;;;;;;-0.06;84.64;100669.94;5118927;28;20019;-63
2021/01/09 05:31:15;;;;;;;74.43;39.88;;;;;;;-0.12;84.38;100676.78;5119540;28;20046;-63
2021/01/09 05:33:41;;;;;;;79.68;41.15;;;;;;;-0.18;83.86;100678.91;5118783;28;20101;-59
2021/01/09 05:36:07;;;;;;;74.35;38.83;;;;;;;-0.24;84.45;100684.91;5117478;28;20018;-59
2021/01/09 05:38:41;;;;;;;70.07;38.15;;;;;;;-0.30;83.90;100687.00;5118940;28;20426;-61
2021/01/09 05:41:08;;;;;;;71.00;39.50;;;;;;;-0.35;84.26;100696.25;5118709;28;20026;-60
2021/01/09 05:43:34;;;;;;;71.30;40.63;;;;;;;-0.37;84.03;100698.53;5118109;28;20023;-63
2021/01/09 05:46:00;;;;;;;73.97;38.13;;;;;;;-0.40;83.73;100699.16;5118693;28;20030;-59
2021/01/09 05:48:30;;;;;;;66.00;38.38;;;;;;;-0.41;84.32;100708.59;5118676;28;20031;-59
2021/01/09 05:50:58;;;;;;;68.30;38.08;;;;;;;-0.41;84.23;100708.59;5118235;28;20355;-63
2021/01/09 05:53:43;;;;;;;71.00;39.15;;;;;;;-0.41;84.45;100716.88;5118740;28;20072;-62
2021/01/09 05:56:14;;;;;;;70.70;38.75;;;;;;;-0.41;84.20;100719.63;5118460;27;20450;-64
2021/01/09 05:58:40;;;;;;;69.80;36.43;;;;;;;-0.37;84.35;100720.63;5118456;28;20019;-62
2021/01/09 06:01:13;;;;;;;75.40;35.80;;;;;;;-0.36;84.48;100722.25;5118242;27;20267;-57
2021/01/09 06:03:56;;;;;;;73.15;35.35;;;;;;;-0.35;84.32;100726.63;5118154;27;20023;-61
2021/01/09 06:06:26;;;;;;;80.30;36.22;;;;;;;-0.38;84.42;100730.03;5118063;28;20028;-59
2021/01/09 06:09:07;;;;;;;78.82;39.42;;;;;;;-0.38;84.61;100732.81;5118296;28;20027;-58
2021/01/09 06:11:34;;;;;;;94.05;42.00;;;;;;;-0.40;84.74;100735.06;5117877;28;20311;-60
2021/01/09 06:14:01;;;;;;;98.18;42.42;;;;;;;-0.40;85.51;100737.84;5118228;28;20062;-54
2021/01/09 06:16:29;;;;;;;91.93;44.42;;;;;;;-0.39;85.42;100735.88;5118520;28;20020;-56
2021/01/09 06:18:57;;;;;;;92.53;43.80;;;;;;;-0.40;86.07;100737.84;5117547;28;20039;-62
2021/01/09 06:21:23;;;;;;;94.47;47.08;;;;;;;-0.43;85.90;100732.94;5116934;28;20024;-63
2021/01/09 06:23:49;;;;;;;90.65;44.58;;;;;;;-0.44;86.01;100736.03;5117906;27;20023;-63
2021/01/09 06:26:14;;;;;;;81.05;42.60;;;;;;;-0.46;86.28;100735.53;5117781;28;20322;-62
2021/01/09 06:28:45;;;;;;;71.78;37.08;;;;;;;-0.48;86.42;100744.16;5117971;28;20028;-65
2021/01/09 06:31:18;;;;;;;79.47;36.72;;;;;;;-0.52;86.91;100745.13;5103605;28;20058;-57
2021/01/09 06:33:47;;;;;;;66.10;35.80;;;;;;;-0.56;87.15;100749.63;5117423;28;20589;-62
2021/01/09 06:36:13;;;;;;;67.00;35.25;;;;;;;-0.59;87.32;100744.75;5117556;28;20019;-60
2021/01/09 06:38:41;;;;;;;67.97;36.00;;;;;;;-0.63;87.34;100739.06;5116670;28;20024;-57
2021/01/09 06:41:11;;;;;;;68.60;36.10;;;;;;;-0.63;87.38;100745.38;5117593;28;20030;-59
2021/01/09 06:43:40;;;;;;;77.07;40.35;;;;;;;-0.61;87.25;100753.34;5117647;28;20035;-63
2021/01/09 06:46:11;;;;;;;81.03;41.47;;;;;;;-0.62;87.58;100754.47;5117370;28;20047;-63
2021/01/09 06:48:36;;;;;;;68.85;37.10;;;;;;;-0.62;87.14;100752.53;5116343;28;20012;-63
2021/01/09 06:51:27;;;;;;;70.57;36.10;;;;;;;-0.63;86.93;100761.94;5117585;28;20307;-63
2021/01/09 06:54:14;;;;;;;70.25;36.90;;;;;;;-0.66;87.57;100770.06;5106597;28;20043;-62
2021/01/09 06:57:02;;;;;;;66.18;35.75;;;;;;;-0.65;87.69;100768.94;5115639;28;20046;-63
2021/01/09 06:59:35;;;;;;;83.65;41.63;;;;;;;-0.69;87.38;100781.75;5116964;28;20024;-62
2021/01/09 07:02:20;;;;;;;110.18;47.92;;;;;;;-0.71;86.74;100786.78;5109161;28;20031;-63
2021/01/09 07:05:00;;;;;;;78.28;40.10;;;;;;;-0.75;86.76;100791.31;5113297;28;20028;-63
2021/01/09 07:07:31;;;;;;;70.43;35.30;;;;;;;-0.78;86.58;100789.19;5117205;28;20041;-62
2021/01/09 07:10:24;;;;;;;70.88;34.53;;;;;;;-0.82;86.85;100793.69;5111458;28;20110;-63
2021/01/09 07:12:54;;;;;;;64.28;32.20;;;;;;;-0.82;86.79;100801.97;5115690;28;20126;-62
2021/01/09 07:15:21;;;;;;;68.13;36.67;;;;;;;-0.83;86.83;100801.13;5117119;28;20095;-62
2021/01/09 07:17:57;;;;;;;83.78;39.63;;;;;;;-0.86;86.86;100806.47;5116255;28;20077;-62
2021/01/09 07:20:28;;;;;;;76.22;37.72;;;;;;;-0.88;86.20;100803.22;5116735;28;20055;-62
2021/01/09 07:22:59;;;;;;;59.05;32.60;;;;;;;-0.91;85.96;100815.72;5116624;28;20182;-63
2021/01/09 07:25:30;;;;;;;67.83;34.60;;;;;;;-0.91;86.35;100820.41;5111085;28;20063;-62
2021/01/09 07:27:58;;;;;;;54.63;30.05;;;;;;;-0.93;86.90;100824.31;5116978;28;20035;-63
2021/01/09 07:30:26;;;;;;;63.92;33.28;;;;;;;-0.90;86.92;100833.09;5116887;28;20080;-62
2021/01/09 07:32:52;;;;;;;73.10;36.33;;;;;;;-0.88;87.38;100839.91;5116211;28;20350;-63
2021/01/09 07:35:22;;;;;;;76.68;38.33;;;;;;;-0.88;86.83;100847.38;5116614;28;20015;-63
2021/01/09 07:37:50;;;;;;;81.97;38.13;;;;;;;-0.87;86.78;100843.50;5116286;28;20299;-63
2021/01/09 07:40:19;;;;;;;99.28;45.35;;;;;;;-0.87;87.00;100846.25;5116690;28;20093;-63
2021/01/09 07:42:45;;;;;;;82.55;42.80;;;;;;;-0.84;87.02;100842.84;5116477;28;20061;-63
2021/01/09 07:45:15;;;;;;;82.85;41.67;;;;;;;-0.81;86.96;100853.28;5116147;28;20109;-63
2021/01/09 07:47:43;;;;;;;72.55;38.67;;;;;;;-0.80;86.87;100857.69;5116162;28;20023;-63
2021/01/09 07:50:10;;;;;;;55.97;30.35;;;;;;;-0.78;87.32;100863.69;5116463;28;20028;-63
2021/01/09 07:52:36;;;;;;;59.13;31.02;;;;;;;-0.78;86.95;100852.66;5116192;28;20043;-64
2021/01/09 07:55:04;;;;;;;63.85;35.05;;;;;;;-0.79;86.49;100857.38;5116026;28;20047;-63
2021/01/09 07:57:30;;;;;;;62.97;32.55;;;;;;;-0.79;86.05;100857.38;5116456;28;20034;-63
2021/01/09 07:59:56;;;;;;;55.25;30.70;;;;;;;-0.82;86.08;100866.28;5104369;28;20077;-63
2021/01/09 08:02:31;;;;;;;60.13;30.05;;;;;;;-0.85;86.30;100863.31;5107443;28;20318;-64
2021/01/09 08:05:06;;;;;;;46.47;27.45;;;;;;;-0.91;86.77;100862.63;5108446;27;20062;-63
2021/01/09 08:07:43;;;;;;;50.67;28.70;;;;;;;-0.93;86.13;100860.19;5103931;28;20024;-63
2021/01/09 08:10:34;;;;;;;51.50;28.13;;;;;;;-0.96;86.70;100863.56;5106566;28;20016;-59
2021/01/09 08:13:08;;;;;;;66.45;30.30;;;;;;;-0.97;86.08;100861.94;5102507;28;20110;-55
2021/01/09 08:15:37;;;;;;;59.20;31.95;;;;;;;-1.00;86.12;100857.06;5096521;28;20024;-64
2021/01/09 08:18:05;;;;;;;62.97;34.63;;;;;;;-1.05;85.86;100859.94;5108928;28;20043;-63
2021/01/09 08:20:31;;;;;;;51.60;29.00;;;;;;;-1.03;86.68;100854.13;5107284;28;20098;-62
2021/01/09 08:23:00;;;;;;;54.72;29.48;;;;;;;-1.03;86.70;100857.69;5112332;28;20031;-63
2021/01/09 08:25:28;;;;;;;55.97;30.02;;;;;;;-1.02;87.15;100853.81;5105702;28;20020;-64
2021/01/09 08:27:59;;;;;;;59.95;31.08;;;;;;;-0.99;87.02;100841.31;5105406;28;20075;-62
2021/01/09 08:30:32;;;;;;;57.67;30.50;;;;;;;-0.97;86.83;100839.06;5104841;28;20030;-62
2021/01/09 08:33:08;;;;;;;62.45;30.45;;;;;;;-0.97;87.09;100845.38;5098651;28;20471;-62
2021/01/09 08:35:35;;;;;;;68.18;34.80;;;;;;;-0.95;87.54;100843.13;5106511;28;20024;-63
2021/01/09 08:38:01;;;;;;;59.92;31.38;;;;;;;-0.90;87.18;100842.19;5104157;28;20027;-62
2021/01/09 08:40:26;;;;;;;59.65;31.25;;;;;;;-0.89;87.20;100857.59;5101386;28;20073;-64
2021/01/09 08:42:57;;;;;;;52.50;28.27;;;;;;;-0.86;87.39;100856.97;5112108;28;20110;-64
2021/01/09 08:45:47;;;;;;;42.08;23.73;;;;;;;-0.84;87.41;100856.66;5111326;28;20472;-65
2021/01/09 08:48:17;;;;;;;48.05;27.00;;;;;;;-0.81;87.21;100864.34;5100660;28;20052;-65
2021/01/09 08:51:01;;;;;;;58.67;31.33;;;;;;;-0.79;87.20;100867.59;5110234;28;20030;-67
2021/01/09 08:53:28;;;;;;;49.90;27.10;;;;;;;-0.78;87.15;100849.91;5113093;28;20081;-66
2021/01/09 08:56:02;;;;;;;56.65;30.63;;;;;;;-0.74;87.73;100853.66;5110271;28;20016;-66
2021/01/09 08:58:31;;;;;;;64.57;34.28;;;;;;;-0.73;87.34;100855.28;5105454;28;20051;-68
2021/01/09 09:00:57;;;;;;;60.72;30.98;;;;;;;-0.70;87.54;100854.66;5100453;28;20126;-66
2021/01/09 09:03:23;;;;;;;60.25;30.52;;;;;;;-0.68;86.99;100857.91;5102258;28;20028;-65
2021/01/09 09:05:50;;;;;;;61.70;30.98;;;;;;;-0.64;87.55;100851.44;5094493;28;20404;-65
2021/01/09 09:08:16;;;;;;;68.75;33.47;;;;;;;-0.60;87.51;100857.13;5094143;28;20430;-60
2021/01/09 09:10:41;;;;;;;59.50;31.48;;;;;;;-0.56;87.20;100866.41;5094308;28;20465;-59
2021/01/09 09:13:23;;;;;;;74.72;36.33;;;;;;;-0.57;86.66;100872.25;5095742;28;20024;-58
2021/01/09 09:15:49;;;;;;;;;;;;;;;-0.58;86.89;100876.97;5107482;28;20022;-57
2021/01/09 09:18:16;;;;;;;69.22;35.67;;;;;;;-0.54;86.04;100868.88;5104503;28;19911;-66
2021/01/09 09:20:46;;;;;;;66.38;33.05;;;;;;;-0.54;86.22;100871.66;5102620;28;20034;-67
2021/01/09 09:23:25;;;;;;;36.67;20.05;;;;;;;-0.49;86.40;100888.88;5102849;28;20481;-62
2021/01/09 09:26:13;;;;;;;51.53;29.27;;;;;;;-0.47;85.92;100880.28;5100137;28;20480;-58
2021/01/09 09:28:51;;;;;;;53.97;28.52;;;;;;;-0.45;86.14;100884.34;5104502;28;20028;-60
2021/01/09 09:31:21;;;;;;;52.50;28.27;;;;;;;-0.44;86.09;100874.13;5102812;28;20429;-58
2021/01/09 09:34:02;;;;;;;54.92;27.67;;;;;;;-0.46;85.61;100860.63;5109428;28;20055;-56
2021/01/09 09:36:28;;;;;;;52.83;28.00;;;;;;;-0.37;86.19;100867.00;5100880;28;20150;-58
2021/01/09 09:38:54;;;;;;;51.20;27.33;;;;;;;-0.35;86.33;100867.50;5106867;28;20059;-64
2021/01/09 09:41:20;;;;;;;57.08;30.33;;;;;;;-0.31;86.55;100874.00;5107888;28;20471;-65
2021/01/09 09:43:57;;;;;;;45.25;24.42;;;;;;;-0.27;86.54;100868.69;5106400;28;20154;-60
2021/01/09 09:46:23;;;;;;;47.08;25.48;;;;;;;-0.24;86.00;100870.00;5104039;28;20023;-55
2021/01/09 09:48:48;;;;;;;52.22;27.13;;;;;;;-0.26;86.02;100866.75;5103637;28;20429;-52
2021/01/09 09:51:14;;;;;;;50.25;28.30;;;;;;;-0.29;86.19;100864.59;5110542;27;20039;-56
2021/01/09 09:53:49;;;;;;;57.92;31.23;;;;;;;-0.30;86.16;100858.25;5109050;27;20039;-54
2021/01/09 09:56:14;;;;;;;57.45;28.80;;;;;;;-0.26;86.46;100855.69;5106999;28;20103;-58
2021/01/09 09:58:40;;;;;;;61.95;31.05;;;;;;;-0.21;87.22;100855.56;5107887;27;20099;-59
2021/01/09 10:01:22;;;;;;;61.50;30.27;;;;;;;-0.15;86.72;100845.97;5110825;27;20364;-62
2021/01/09 10:03:49;;;;;;;56.47;31.17;;;;;;;-0.13;87.19;100838.19;5104506;28;20032;-58
2021/01/09 10:09:13;;;;;;;68.20;31.73;;;;;;;0.03;86.91;100838.56;5113004;27;20026;-54
2021/01/09 10:11:40;;;;;;;76.22;36.25;;;;;;;0.02;86.67;100826.69;5108902;28;20015;-59
2021/01/09 10:14:06;;;;;;;68.80;31.83;;;;;;;0.02;86.38;100825.88;5104438;28;20032;-64
2021/01/09 10:16:32;;;;;;;79.35;37.70;;;;;;;0.06;86.56;100829.63;5106069;28;20050;-66
2021/01/09 10:18:57;;;;;;;67.93;34.00;;;;;;;0.09;86.71;100820.69;5117718;28;20027;-64
2021/01/09 10:21:27;;;;;;;70.63;35.53;;;;;;;0.07;86.57;100818.25;5117171;28;20035;-55
2021/01/09 10:23:53;;;;;;;69.78;33.10;;;;;;;0.08;86.28;100825.41;5117886;28;20487;-64
2021/01/09 10:26:32;;;;;;;65.38;32.42;;;;;;;0.12;86.62;100817.28;5116637;28;20028;-60
2021/01/09 10:29:00;;;;;;;56.65;29.08;;;;;;;0.18;86.09;100822.31;5106613;28;20051;-66
2021/01/09 10:31:33;;;;;;;48.60;26.60;;;;;;;0.24;85.90;100811.91;5097783;28;20103;-65
2021/01/09 10:34:00;;;;;;;53.35;26.95;;;;;;;0.25;86.01;100808.81;5099055;28;20541;-66
2021/01/09 10:36:28;;;;;;;58.00;28.35;;;;;;;0.26;85.70;100813.22;5097867;28;20044;-64
2021/01/09 10:38:54;;;;;;;54.95;29.10;;;;;;;0.28;85.73;100813.75;5107348;28;20024;-66
2021/01/09 10:41:19;;;;;;;50.00;24.88;;;;;;;0.33;85.94;100803.66;5108726;28;20292;-65
2021/01/09 10:43:45;;;;;;;43.47;23.77;;;;;;;0.30;85.59;100800.41;5100110;28;20382;-65
2021/01/09 10:46:10;;;;;;;47.75;25.00;;;;;;;0.34;85.98;100805.28;5102777;28;20024;-65
2021/01/09 10:48:36;;;;;;;50.72;26.52;;;;;;;0.38;86.26;100800.72;5106192;28;20020;-66
2021/01/09 10:51:01;;;;;;;43.97;24.55;;;;;;;0.41;86.07;100789.00;5108931;28;20027;-66
2021/01/09 10:53:26;;;;;;;48.50;25.30;;;;;;;0.45;86.20;100779.72;5101783;28;20318;-66
2021/01/09 10:55:56;;;;;;;45.50;23.90;;;;;;;0.50;86.12;100776.81;5108778;28;20062;-66
2021/01/09 10:58:21;;;;;;;44.75;24.60;;;;;;;0.55;85.61;100773.09;5112658;28;20016;-66
2021/01/09 11:00:47;;;;;;;55.78;30.63;;;;;;;0.61;86.17;100769.00;5107339;28;20024;-66
2021/01/09 11:03:12;;;;;;;57.63;30.60;;;;;;;0.69;86.21;100768.16;5104194;28;20027;-66
2021/01/09 11:05:41;;;;;;;67.72;37.00;;;;;;;0.79;86.48;100767.00;5108488;28;20034;-66
2021/01/09 11:08:07;;;;;;;76.65;42.80;;;;;;;0.82;86.40;100778.25;5112713;28;20030;-56
2021/01/09 11:10:32;;;;;;;60.35;33.38;;;;;;;0.89;86.13;100784.09;5110954;28;20024;-56
2021/01/09 11:12:57;;;;;;;54.92;31.75;;;;;;;0.89;85.31;100784.09;5108160;28;20035;-52
2021/01/09 11:15:23;;;;;;;50.25;27.70;;;;;;;0.96;85.28;100788.31;5112278;28;20045;-54
2021/01/09 11:17:48;;;;;;;64.30;36.35;;;;;;;0.99;85.13;100776.59;5111757;28;20028;-56
2021/01/09 11:20:15;;;;;;;55.67;33.15;;;;;;;0.98;84.79;100783.25;5117034;28;20035;-57